sensor_id;sensor_type;location;lat;lon;timestamp;temperature;humidity
23089;DHT22;11713;48.506;8.966;2022-08-19T00:00:05;21.30;99.90
23089;DHT22;11713;48.506;8.966;2022-08-19T00:02:33;21.30;99.90
23089;DHT22;11713;48.506;8.966;2022-08-19T00:04:59;21.30;99.90
23089;DHT22;11713;48.506;8.966;2022-08-19T00:07:25;21.30;99.90
23089;DHT22;11713;48.506;8.966;2022-08-19T00:09:51;21.30;99.90
23089;DHT22;11713;48.506;8.966;2022-08-19T00:12:17;21.30;99.90
23089;DHT22;11713;48.506;8.966;2022-08-19T00:14:42;21.30;99.90
23089;DHT22;11713;48.506;8.966;2022-08-19T00:17:09;21.20;99.90
23089;DHT22;11713;48.506;8.966;2022-08-19T00:19:35;21.20;99.90
23089;DHT22;11713;48.506;8.966;2022-08-19T00:22:02;21.10;99.90
23089;DHT22;11713;48.506;8.966;2022-08-19T00:24:29;21.00;99.90
23089;DHT22;11713;48.506;8.966;2022-08-19T00:26:55;21.00;99.90
23089;DHT22;11713;48.506;8.966;2022-08-19T00:29:23;20.90;99.90
23089;DHT22;11713;48.506;8.966;2022-08-19T00:31:49;20.80;99.90
23089;DHT22;11713;48.506;8.966;2022-08-19T00:34:18;20.80;99.90
23089;DHT22;11713;48.506;8.966;2022-08-19T00:36:45;20.70;99.90
23089;DHT22;11713;48.506;8.966;2022-08-19T00:39:12;20.70;99.90
23089;DHT22;11713;48.506;8.966;2022-08-19T00:41:39;20.70;99.90
23089;DHT22;11713;48.506;8.966;2022-08-19T00:44:16;20.60;99.90
23089;DHT22;11713;48.506;8.966;2022-08-19T00:46:46;20.60;99.90
23089;DHT22;11713;48.506;8.966;2022-08-19T00:51:50;20.50;99.90
23089;DHT22;11713;48.506;8.966;2022-08-19T00:54:17;20.50;99.90
23089;DHT22;11713;48.506;8.966;2022-08-19T00:56:44;20.50;99.90
23089;DHT22;11713;48.506;8.966;2022-08-19T00:59:11;20.60;99.90
23089;DHT22;11713;48.506;8.966;2022-08-19T01:01:39;20.60;99.90
23089;DHT22;11713;48.506;8.966;2022-08-19T01:04:06;20.60;99.90
23089;DHT22;11713;48.506;8.966;2022-08-19T01:06:33;20.50;99.90
23089;DHT22;11713;48.506;8.966;2022-08-19T01:09:01;20.40;99.90
23089;DHT22;11713;48.506;8.966;2022-08-19T01:11:31;20.40;99.90
23089;DHT22;11713;48.506;8.966;2022-08-19T01:13:59;20.40;99.90
23089;DHT22;11713;48.506;8.966;2022-08-19T01:16:27;20.30;99.90
23089;DHT22;11713;48.506;8.966;2022-08-19T01:18:53;20.30;99.90
23089;DHT22;11713;48.506;8.966;2022-08-19T01:21:37;20.30;99.90
23089;DHT22;11713;48.506;8.966;2022-08-19T01:24:05;20.30;99.90
23089;DHT22;11713;48.506;8.966;2022-08-19T01:26:31;20.20;99.90
23089;DHT22;11713;48.506;8.966;2022-08-19T01:29:03;20.20;99.90
23089;DHT22;11713;48.506;8.966;2022-08-19T01:31:29;20.20;99.90
23089;DHT22;11713;48.506;8.966;2022-08-19T01:33:57;20.20;99.90
23089;DHT22;11713;48.506;8.966;2022-08-19T01:36:38;20.20;99.90
23089;DHT22;11713;48.506;8.966;2022-08-19T01:39:08;20.20;99.90
23089;DHT22;11713;48.506;8.966;2022-08-19T01:41:35;20.10;99.90
23089;DHT22;11713;48.506;8.966;2022-08-19T01:44:01;20.10;99.90
23089;DHT22;11713;48.506;8.966;2022-08-19T01:46:42;20.20;99.90
23089;DHT22;11713;48.506;8.966;2022-08-19T01:49:28;20.20;99.90
23089;DHT22;11713;48.506;8.966;2022-08-19T01:51:55;20.20;99.90
23089;DHT22;11713;48.506;8.966;2022-08-19T01:54:22;20.10;99.90
23089;DHT22;11713;48.506;8.966;2022-08-19T01:56:53;20.10;99.90
23089;DHT22;11713;48.506;8.966;2022-08-19T01:59:21;20.10;99.90
23089;DHT22;11713;48.506;8.966;2022-08-19T02:01:48;20.10;99.90
23089;DHT22;11713;48.506;8.966;2022-08-19T02:04:14;20.10;99.90
23089;DHT22;11713;48.506;8.966;2022-08-19T02:06:40;20.00;99.90
23089;DHT22;11713;48.506;8.966;2022-08-19T02:09:06;20.10;99.90
23089;DHT22;11713;48.506;8.966;2022-08-19T02:11:35;20.10;99.90
23089;DHT22;11713;48.506;8.966;2022-08-19T02:14:04;20.00;99.90
23089;DHT22;11713;48.506;8.966;2022-08-19T02:16:31;20.00;99.90
23089;DHT22;11713;48.506;8.966;2022-08-19T02:18:58;20.00;99.90
23089;DHT22;11713;48.506;8.966;2022-08-19T02:21:26;19.90;99.90
23089;DHT22;11713;48.506;8.966;2022-08-19T02:23:52;19.90;99.90
23089;DHT22;11713;48.506;8.966;2022-08-19T02:26:18;19.90;99.90
23089;DHT22;11713;48.506;8.966;2022-08-19T02:28:44;19.90;99.90
23089;DHT22;11713;48.506;8.966;2022-08-19T02:31:13;19.90;99.90
23089;DHT22;11713;48.506;8.966;2022-08-19T02:33:40;19.90;99.90
23089;DHT22;11713;48.506;8.966;2022-08-19T02:36:08;19.80;99.90
23089;DHT22;11713;48.506;8.966;2022-08-19T02:39:07;19.80;99.90
23089;DHT22;11713;48.506;8.966;2022-08-19T02:41:34;19.70;99.90
23089;DHT22;11713;48.506;8.966;2022-08-19T02:44:02;19.60;99.90
23089;DHT22;11713;48.506;8.966;2022-08-19T02:46:31;19.60;99.90
23089;DHT22;11713;48.506;8.966;2022-08-19T02:49:03;19.60;99.90
23089;DHT22;11713;48.506;8.966;2022-08-19T02:51:37;19.70;99.90
23089;DHT22;11713;48.506;8.966;2022-08-19T02:54:04;19.70;99.90
23089;DHT22;11713;48.506;8.966;2022-08-19T02:56:32;19.70;99.90
23089;DHT22;11713;48.506;8.966;2022-08-19T02:58:59;19.70;99.90
23089;DHT22;11713;48.506;8.966;2022-08-19T03:01:28;19.60;99.90
23089;DHT22;11713;48.506;8.966;2022-08-19T03:03:55;19.60;99.90
23089;DHT22;11713;48.506;8.966;2022-08-19T03:06:22;19.60;99.90
23089;DHT22;11713;48.506;8.966;2022-08-19T03:08:49;19.60;99.90
23089;DHT22;11713;48.506;8.966;2022-08-19T03:11:23;19.60;99.90
23089;DHT22;11713;48.506;8.966;2022-08-19T03:13:49;19.60;99.90
23089;DHT22;11713;48.506;8.966;2022-08-19T03:16:18;19.60;99.90
23089;DHT22;11713;48.506;8.966;2022-08-19T03:18:44;19.50;99.90
23089;DHT22;11713;48.506;8.966;2022-08-19T03:21:19;19.50;99.90
23089;DHT22;11713;48.506;8.966;2022-08-19T03:23:46;19.50;99.90
23089;DHT22;11713;48.506;8.966;2022-08-19T03:26:12;19.50;99.90
23089;DHT22;11713;48.506;8.966;2022-08-19T03:28:41;19.50;99.90
23089;DHT22;11713;48.506;8.966;2022-08-19T03:31:11;19.50;99.90
23089;DHT22;11713;48.506;8.966;2022-08-19T03:33:38;19.60;99.90
23089;DHT22;11713;48.506;8.966;2022-08-19T03:36:13;19.60;99.90
23089;DHT22;11713;48.506;8.966;2022-08-19T03:38:48;19.60;99.90
23089;DHT22;11713;48.506;8.966;2022-08-19T03:41:17;19.60;99.90
23089;DHT22;11713;48.506;8.966;2022-08-19T03:43:44;19.60;99.90
23089;DHT22;11713;48.506;8.966;2022-08-19T03:46:18;19.60;99.90
23089;DHT22;11713;48.506;8.966;2022-08-19T03:48:48;19.60;99.90
23089;DHT22;11713;48.506;8.966;2022-08-19T03:51:22;19.60;99.90
23089;DHT22;11713;48.506;8.966;2022-08-19T03:53:50;19.60;99.90
23089;DHT22;11713;48.506;8.966;2022-08-19T03:56:17;19.60;99.90
23089;DHT22;11713;48.506;8.966;2022-08-19T03:58:43;19.60;99.90
23089;DHT22;11713;48.506;8.966;2022-08-19T04:01:19;19.60;99.90
23089;DHT22;11713;48.506;8.966;2022-08-19T04:03:46;19.60;99.90
23089;DHT22;11713;48.506;8.966;2022-08-19T04:06:17;19.60;99.90
23089;DHT22;11713;48.506;8.966;2022-08-19T04:08:45;19.60;99.90
23089;DHT22;11713;48.506;8.966;2022-08-19T04:11:18;19.60;99.90
23089;DHT22;11713;48.506;8.966;2022-08-19T04:13:47;19.50;99.90
23089;DHT22;11713;48.506;8.966;2022-08-19T04:16:14;19.50;99.90
23089;DHT22;11713;48.506;8.966;2022-08-19T04:18:40;19.40;99.90
23089;DHT22;11713;48.506;8.966;2022-08-19T04:21:07;19.40;99.90
23089;DHT22;11713;48.506;8.966;2022-08-19T04:23:34;19.40;99.90
23089;DHT22;11713;48.506;8.966;2022-08-19T04:26:01;19.30;99.90
23089;DHT22;11713;48.506;8.966;2022-08-19T04:28:28;19.40;99.90
23089;DHT22;11713;48.506;8.966;2022-08-19T04:30:55;19.40;99.90
23089;DHT22;11713;48.506;8.966;2022-08-19T04:33:23;19.40;99.90
23089;DHT22;11713;48.506;8.966;2022-08-19T04:35:51;19.50;99.90
23089;DHT22;11713;48.506;8.966;2022-08-19T04:38:20;19.50;99.90
23089;DHT22;11713;48.506;8.966;2022-08-19T04:40:49;19.50;99.90
23089;DHT22;11713;48.506;8.966;2022-08-19T04:43:37;19.50;99.90
23089;DHT22;11713;48.506;8.966;2022-08-19T04:46:08;19.60;99.90
23089;DHT22;11713;48.506;8.966;2022-08-19T04:48:36;19.50;99.90
23089;DHT22;11713;48.506;8.966;2022-08-19T04:51:06;19.50;99.90
23089;DHT22;11713;48.506;8.966;2022-08-19T04:53:35;19.50;99.90
23089;DHT22;11713;48.506;8.966;2022-08-19T04:56:06;19.50;99.90
23089;DHT22;11713;48.506;8.966;2022-08-19T04:58:33;19.50;99.90
23089;DHT22;11713;48.506;8.966;2022-08-19T05:01:22;19.50;99.90
23089;DHT22;11713;48.506;8.966;2022-08-19T05:03:48;19.40;99.90
23089;DHT22;11713;48.506;8.966;2022-08-19T05:09:38;19.50;99.90
23089;DHT22;11713;48.506;8.966;2022-08-19T05:12:04;19.50;99.90
23089;DHT22;11713;48.506;8.966;2022-08-19T05:14:31;19.50;99.90
23089;DHT22;11713;48.506;8.966;2022-08-19T05:16:57;19.50;99.90
23089;DHT22;11713;48.506;8.966;2022-08-19T05:19:23;19.50;99.90
23089;DHT22;11713;48.506;8.966;2022-08-19T05:22:07;19.50;99.90
23089;DHT22;11713;48.506;8.966;2022-08-19T05:24:51;19.50;99.90
23089;DHT22;11713;48.506;8.966;2022-08-19T05:27:17;19.50;99.90
23089;DHT22;11713;48.506;8.966;2022-08-19T05:29:43;19.50;99.90
23089;DHT22;11713;48.506;8.966;2022-08-19T05:32:09;19.50;99.90
23089;DHT22;11713;48.506;8.966;2022-08-19T05:34:36;19.50;99.90
23089;DHT22;11713;48.506;8.966;2022-08-19T05:37:04;19.50;99.90
23089;DHT22;11713;48.506;8.966;2022-08-19T05:39:32;19.50;99.90
23089;DHT22;11713;48.506;8.966;2022-08-19T05:42:08;19.50;99.90
23089;DHT22;11713;48.506;8.966;2022-08-19T05:44:40;19.50;99.90
23089;DHT22;11713;48.506;8.966;2022-08-19T05:47:10;19.50;99.90
23089;DHT22;11713;48.506;8.966;2022-08-19T05:49:37;19.50;99.90
23089;DHT22;11713;48.506;8.966;2022-08-19T05:52:05;19.50;99.90
23089;DHT22;11713;48.506;8.966;2022-08-19T05:54:32;19.50;99.90
23089;DHT22;11713;48.506;8.966;2022-08-19T06:00:17;19.50;99.90
23089;DHT22;11713;48.506;8.966;2022-08-19T06:02:43;19.50;99.90
23089;DHT22;11713;48.506;8.966;2022-08-19T06:05:09;19.50;99.90
23089;DHT22;11713;48.506;8.966;2022-08-19T06:07:36;19.50;99.90
23089;DHT22;11713;48.506;8.966;2022-08-19T06:10:04;19.50;99.90
23089;DHT22;11713;48.506;8.966;2022-08-19T06:12:32;19.50;99.90
23089;DHT22;11713;48.506;8.966;2022-08-19T06:15:01;19.50;99.90
23089;DHT22;11713;48.506;8.966;2022-08-19T06:17:29;19.50;99.90
23089;DHT22;11713;48.506;8.966;2022-08-19T06:19:55;19.60;99.90
23089;DHT22;11713;48.506;8.966;2022-08-19T06:22:21;19.60;99.90
23089;DHT22;11713;48.506;8.966;2022-08-19T06:24:47;19.60;99.90
23089;DHT22;11713;48.506;8.966;2022-08-19T06:27:13;19.60;99.90
23089;DHT22;11713;48.506;8.966;2022-08-19T06:29:39;19.70;99.90
23089;DHT22;11713;48.506;8.966;2022-08-19T06:32:05;19.70;99.90
23089;DHT22;11713;48.506;8.966;2022-08-19T06:34:32;19.70;99.90
23089;DHT22;11713;48.506;8.966;2022-08-19T06:37:00;19.70;99.90
23089;DHT22;11713;48.506;8.966;2022-08-19T06:39:30;19.70;99.90
23089;DHT22;11713;48.506;8.966;2022-08-19T06:41:58;19.70;99.90
23089;DHT22;11713;48.506;8.966;2022-08-19T06:44:32;19.70;99.90
23089;DHT22;11713;48.506;8.966;2022-08-19T06:47:02;19.70;99.90
23089;DHT22;11713;48.506;8.966;2022-08-19T06:49:29;19.80;99.90
23089;DHT22;11713;48.506;8.966;2022-08-19T06:51:57;19.80;99.90
23089;DHT22;11713;48.506;8.966;2022-08-19T06:54:24;19.80;99.90
23089;DHT22;11713;48.506;8.966;2022-08-19T06:56:51;19.80;99.90
23089;DHT22;11713;48.506;8.966;2022-08-19T06:59:20;19.90;99.90
23089;DHT22;11713;48.506;8.966;2022-08-19T07:02:01;19.90;99.90
23089;DHT22;11713;48.506;8.966;2022-08-19T07:04:55;19.90;99.90
23089;DHT22;11713;48.506;8.966;2022-08-19T07:07:23;19.90;99.90
23089;DHT22;11713;48.506;8.966;2022-08-19T07:09:50;19.90;99.90
23089;DHT22;11713;48.506;8.966;2022-08-19T07:12:18;19.90;99.90
23089;DHT22;11713;48.506;8.966;2022-08-19T07:14:44;19.90;99.90
23089;DHT22;11713;48.506;8.966;2022-08-19T07:17:12;19.90;99.90
23089;DHT22;11713;48.506;8.966;2022-08-19T07:19:38;19.90;99.90
23089;DHT22;11713;48.506;8.966;2022-08-19T07:22:07;20.00;99.90
23089;DHT22;11713;48.506;8.966;2022-08-19T07:24:33;20.00;99.90
23089;DHT22;11713;48.506;8.966;2022-08-19T07:27:02;20.00;99.90
23089;DHT22;11713;48.506;8.966;2022-08-19T07:29:30;20.00;99.90
23089;DHT22;11713;48.506;8.966;2022-08-19T07:31:57;20.10;99.90
23089;DHT22;11713;48.506;8.966;2022-08-19T07:34:25;20.10;99.90
23089;DHT22;11713;48.506;8.966;2022-08-19T07:36:52;20.10;99.90
23089;DHT22;11713;48.506;8.966;2022-08-19T07:39:22;20.20;99.90
23089;DHT22;11713;48.506;8.966;2022-08-19T07:41:48;20.10;99.90
23089;DHT22;11713;48.506;8.966;2022-08-19T07:44:15;20.10;99.90
23089;DHT22;11713;48.506;8.966;2022-08-19T07:46:44;20.20;99.90
23089;DHT22;11713;48.506;8.966;2022-08-19T07:49:12;20.20;99.90
23089;DHT22;11713;48.506;8.966;2022-08-19T07:51:44;20.20;99.90
23089;DHT22;11713;48.506;8.966;2022-08-19T07:54:10;20.20;99.90
23089;DHT22;11713;48.506;8.966;2022-08-19T07:56:37;20.20;99.90
23089;DHT22;11713;48.506;8.966;2022-08-19T07:59:03;20.20;99.90
23089;DHT22;11713;48.506;8.966;2022-08-19T08:01:30;20.20;99.90
23089;DHT22;11713;48.506;8.966;2022-08-19T08:03:57;20.30;99.90
23089;DHT22;11713;48.506;8.966;2022-08-19T08:06:42;20.40;99.90
23089;DHT22;11713;48.506;8.966;2022-08-19T08:09:31;20.40;99.90
23089;DHT22;11713;48.506;8.966;2022-08-19T08:12:01;20.40;99.90
23089;DHT22;11713;48.506;8.966;2022-08-19T08:14:33;20.40;99.90
23089;DHT22;11713;48.506;8.966;2022-08-19T08:17:02;20.40;99.90
23089;DHT22;11713;48.506;8.966;2022-08-19T08:19:28;20.40;99.90
23089;DHT22;11713;48.506;8.966;2022-08-19T08:21:56;20.40;99.90
23089;DHT22;11713;48.506;8.966;2022-08-19T08:24:23;20.40;99.90
23089;DHT22;11713;48.506;8.966;2022-08-19T08:26:49;20.40;99.90
23089;DHT22;11713;48.506;8.966;2022-08-19T08:29:15;20.40;99.90
23089;DHT22;11713;48.506;8.966;2022-08-19T08:31:43;20.40;99.90
23089;DHT22;11713;48.506;8.966;2022-08-19T08:34:14;20.40;99.90
23089;DHT22;11713;48.506;8.966;2022-08-19T08:36:42;20.40;99.90
23089;DHT22;11713;48.506;8.966;2022-08-19T08:39:12;20.40;99.90
23089;DHT22;11713;48.506;8.966;2022-08-19T08:41:52;20.40;99.90
23089;DHT22;11713;48.506;8.966;2022-08-19T08:47:15;20.40;99.90
23089;DHT22;11713;48.506;8.966;2022-08-19T08:49:53;20.40;99.90
23089;DHT22;11713;48.506;8.966;2022-08-19T08:52:26;20.30;99.90
23089;DHT22;11713;48.506;8.966;2022-08-19T08:54:57;20.40;99.90
23089;DHT22;11713;48.506;8.966;2022-08-19T08:57:28;20.30;99.90
23089;DHT22;11713;48.506;8.966;2022-08-19T08:59:57;20.20;99.90
23089;DHT22;11713;48.506;8.966;2022-08-19T09:02:23;20.20;99.90
23089;DHT22;11713;48.506;8.966;2022-08-19T09:04:49;20.20;99.90
23089;DHT22;11713;48.506;8.966;2022-08-19T09:07:30;20.20;99.90
23089;DHT22;11713;48.506;8.966;2022-08-19T09:10:29;20.20;99.90
23089;DHT22;11713;48.506;8.966;2022-08-19T09:15:47;20.20;99.90
23089;DHT22;11713;48.506;8.966;2022-08-19T09:18:14;20.20;99.90
23089;DHT22;11713;48.506;8.966;2022-08-19T09:20:42;20.20;99.90
23089;DHT22;11713;48.506;8.966;2022-08-19T09:23:08;20.20;99.90
23089;DHT22;11713;48.506;8.966;2022-08-19T09:25:34;20.20;99.90
23089;DHT22;11713;48.506;8.966;2022-08-19T09:28:01;20.20;99.90
23089;DHT22;11713;48.506;8.966;2022-08-19T09:30:32;20.30;99.90
23089;DHT22;11713;48.506;8.966;2022-08-19T09:32:59;20.30;99.90
23089;DHT22;11713;48.506;8.966;2022-08-19T09:35:28;20.30;99.90
23089;DHT22;11713;48.506;8.966;2022-08-19T09:37:57;20.30;99.90
23089;DHT22;11713;48.506;8.966;2022-08-19T09:40:24;20.30;99.90
23089;DHT22;11713;48.506;8.966;2022-08-19T09:42:51;20.30;99.90
23089;DHT22;11713;48.506;8.966;2022-08-19T09:45:19;20.30;99.90
23089;DHT22;11713;48.506;8.966;2022-08-19T09:47:52;20.20;99.90
23089;DHT22;11713;48.506;8.966;2022-08-19T09:50:18;20.20;99.90
23089;DHT22;11713;48.506;8.966;2022-08-19T09:52:45;20.20;99.90
23089;DHT22;11713;48.506;8.966;2022-08-19T09:55:12;20.20;99.90
23089;DHT22;11713;48.506;8.966;2022-08-19T09:57:38;20.10;99.90
23089;DHT22;11713;48.506;8.966;2022-08-19T10:00:06;20.10;99.90
23089;DHT22;11713;48.506;8.966;2022-08-19T10:02:33;20.00;99.90
23089;DHT22;11713;48.506;8.966;2022-08-19T10:04:59;20.10;99.90
23089;DHT22;11713;48.506;8.966;2022-08-19T10:07:43;20.00;99.90
23089;DHT22;11713;48.506;8.966;2022-08-19T10:10:09;20.00;99.90
23089;DHT22;11713;48.506;8.966;2022-08-19T10:12:36;20.10;99.90
23089;DHT22;11713;48.506;8.966;2022-08-19T10:15:05;20.10;99.90
23089;DHT22;11713;48.506;8.966;2022-08-19T10:17:32;20.20;99.90
23089;DHT22;11713;48.506;8.966;2022-08-19T10:20:01;20.20;99.90
23089;DHT22;11713;48.506;8.966;2022-08-19T10:22:29;20.20;99.90
23089;DHT22;11713;48.506;8.966;2022-08-19T10:25:06;20.20;99.90
23089;DHT22;11713;48.506;8.966;2022-08-19T10:27:32;20.30;99.90
23089;DHT22;11713;48.506;8.966;2022-08-19T10:29:58;20.30;99.90
23089;DHT22;11713;48.506;8.966;2022-08-19T10:32:23;20.30;99.90
23089;DHT22;11713;48.506;8.966;2022-08-19T10:34:50;20.40;99.90
23089;DHT22;11713;48.506;8.966;2022-08-19T10:37:17;20.40;99.90
23089;DHT22;11713;48.506;8.966;2022-08-19T10:39:46;20.40;99.90
23089;DHT22;11713;48.506;8.966;2022-08-19T10:42:14;20.40;99.90
23089;DHT22;11713;48.506;8.966;2022-08-19T10:44:41;20.40;99.90
23089;DHT22;11713;48.506;8.966;2022-08-19T10:47:07;20.40;99.90
23089;DHT22;11713;48.506;8.966;2022-08-19T10:49:33;20.40;99.90
23089;DHT22;11713;48.506;8.966;2022-08-19T10:52:19;20.50;99.90
23089;DHT22;11713;48.506;8.966;2022-08-19T10:55:05;20.50;99.90
23089;DHT22;11713;48.506;8.966;2022-08-19T10:57:58;20.60;99.90
23089;DHT22;11713;48.506;8.966;2022-08-19T11:00:24;20.60;99.90
23089;DHT22;11713;48.506;8.966;2022-08-19T11:02:52;20.60;99.90
23089;DHT22;11713;48.506;8.966;2022-08-19T11:05:18;20.70;99.90
23089;DHT22;11713;48.506;8.966;2022-08-19T11:07:45;20.70;99.90
23089;DHT22;11713;48.506;8.966;2022-08-19T11:10:13;20.60;99.90
23089;DHT22;11713;48.506;8.966;2022-08-19T11:12:39;20.60;99.90
23089;DHT22;11713;48.506;8.966;2022-08-19T11:15:08;20.60;99.90
23089;DHT22;11713;48.506;8.966;2022-08-19T11:17:38;20.60;99.90
23089;DHT22;11713;48.506;8.966;2022-08-19T11:20:11;20.60;99.90
23089;DHT22;11713;48.506;8.966;2022-08-19T11:22:38;20.50;99.90
23089;DHT22;11713;48.506;8.966;2022-08-19T11:25:04;20.50;99.90
23089;DHT22;11713;48.506;8.966;2022-08-19T11:27:30;20.50;99.90
23089;DHT22;11713;48.506;8.966;2022-08-19T11:29:56;20.50;99.90
23089;DHT22;11713;48.506;8.966;2022-08-19T11:32:22;20.40;99.90
23089;DHT22;11713;48.506;8.966;2022-08-19T11:34:48;20.40;99.90
23089;DHT22;11713;48.506;8.966;2022-08-19T11:37:14;20.50;99.90
23089;DHT22;11713;48.506;8.966;2022-08-19T11:39:41;20.40;99.90
23089;DHT22;11713;48.506;8.966;2022-08-19T11:42:07;20.40;99.90
23089;DHT22;11713;48.506;8.966;2022-08-19T11:44:53;20.40;99.90
23089;DHT22;11713;48.506;8.966;2022-08-19T11:47:19;20.50;99.90
23089;DHT22;11713;48.506;8.966;2022-08-19T11:49:46;20.50;99.90
23089;DHT22;11713;48.506;8.966;2022-08-19T11:52:12;20.40;99.90
23089;DHT22;11713;48.506;8.966;2022-08-19T11:54:38;20.40;99.90
23089;DHT22;11713;48.506;8.966;2022-08-19T11:57:04;20.40;99.90
23089;DHT22;11713;48.506;8.966;2022-08-19T11:59:30;20.40;99.90
23089;DHT22;11713;48.506;8.966;2022-08-19T12:01:56;20.40;99.90
23089;DHT22;11713;48.506;8.966;2022-08-19T12:04:23;20.40;99.90
23089;DHT22;11713;48.506;8.966;2022-08-19T12:06:49;20.30;99.90
23089;DHT22;11713;48.506;8.966;2022-08-19T12:09:16;20.30;99.90
23089;DHT22;11713;48.506;8.966;2022-08-19T12:11:43;20.20;99.90
23089;DHT22;11713;48.506;8.966;2022-08-19T12:14:11;20.20;99.90
23089;DHT22;11713;48.506;8.966;2022-08-19T12:16:38;20.20;99.90
23089;DHT22;11713;48.506;8.966;2022-08-19T12:19:04;20.20;99.90
23089;DHT22;11713;48.506;8.966;2022-08-19T12:21:33;20.20;99.90
23089;DHT22;11713;48.506;8.966;2022-08-19T12:24:03;20.20;99.90
23089;DHT22;11713;48.506;8.966;2022-08-19T12:26:30;20.20;99.90
23089;DHT22;11713;48.506;8.966;2022-08-19T12:28:57;20.20;99.90
23089;DHT22;11713;48.506;8.966;2022-08-19T12:31:26;20.20;99.90
23089;DHT22;11713;48.506;8.966;2022-08-19T12:33:53;20.20;99.90
23089;DHT22;11713;48.506;8.966;2022-08-19T12:36:19;20.20;99.90
23089;DHT22;11713;48.506;8.966;2022-08-19T12:38:45;20.20;99.90
23089;DHT22;11713;48.506;8.966;2022-08-19T12:41:14;20.20;99.90
23089;DHT22;11713;48.506;8.966;2022-08-19T12:43:41;20.20;99.90
23089;DHT22;11713;48.506;8.966;2022-08-19T12:46:07;20.20;99.90
23089;DHT22;11713;48.506;8.966;2022-08-19T12:48:34;20.20;99.90
23089;DHT22;11713;48.506;8.966;2022-08-19T12:51:11;20.30;99.90
23089;DHT22;11713;48.506;8.966;2022-08-19T12:53:38;20.40;99.90
23089;DHT22;11713;48.506;8.966;2022-08-19T12:56:05;20.40;99.90
23089;DHT22;11713;48.506;8.966;2022-08-19T12:58:31;20.40;99.90
23089;DHT22;11713;48.506;8.966;2022-08-19T13:01:07;20.40;99.90
23089;DHT22;11713;48.506;8.966;2022-08-19T13:03:33;20.30;99.90
23089;DHT22;11713;48.506;8.966;2022-08-19T13:05:59;20.30;99.90
23089;DHT22;11713;48.506;8.966;2022-08-19T13:08:25;20.20;99.90
23089;DHT22;11713;48.506;8.966;2022-08-19T13:10:51;20.20;99.90
23089;DHT22;11713;48.506;8.966;2022-08-19T13:13:17;20.20;99.90
23089;DHT22;11713;48.506;8.966;2022-08-19T13:15:43;20.20;99.90
23089;DHT22;11713;48.506;8.966;2022-08-19T13:18:11;20.20;99.90
23089;DHT22;11713;48.506;8.966;2022-08-19T13:20:39;20.20;99.90
23089;DHT22;11713;48.506;8.966;2022-08-19T13:23:08;20.20;99.90
23089;DHT22;11713;48.506;8.966;2022-08-19T13:25:34;20.20;99.90
23089;DHT22;11713;48.506;8.966;2022-08-19T13:28:02;20.20;99.90
23089;DHT22;11713;48.506;8.966;2022-08-19T13:30:28;20.20;99.90
23089;DHT22;11713;48.506;8.966;2022-08-19T13:33:12;20.30;99.90
23089;DHT22;11713;48.506;8.966;2022-08-19T13:38:13;20.30;99.90
23089;DHT22;11713;48.506;8.966;2022-08-19T13:40:40;20.30;99.90
23089;DHT22;11713;48.506;8.966;2022-08-19T13:43:06;20.30;99.90
23089;DHT22;11713;48.506;8.966;2022-08-19T13:45:33;20.40;99.90
23089;DHT22;11713;48.506;8.966;2022-08-19T13:48:01;20.40;99.90
23089;DHT22;11713;48.506;8.966;2022-08-19T13:50:31;20.40;99.90
23089;DHT22;11713;48.506;8.966;2022-08-19T13:52:56;20.50;99.90
23089;DHT22;11713;48.506;8.966;2022-08-19T13:55:23;20.50;99.90
23089;DHT22;11713;48.506;8.966;2022-08-19T13:57:54;20.60;99.90
23089;DHT22;11713;48.506;8.966;2022-08-19T14:00:21;20.60;99.90
23089;DHT22;11713;48.506;8.966;2022-08-19T14:02:51;20.70;99.90
23089;DHT22;11713;48.506;8.966;2022-08-19T14:05:18;20.80;99.90
23089;DHT22;11713;48.506;8.966;2022-08-19T14:07:44;20.90;99.90
23089;DHT22;11713;48.506;8.966;2022-08-19T14:10:12;21.00;99.90
23089;DHT22;11713;48.506;8.966;2022-08-19T14:12:38;21.10;99.90
23089;DHT22;11713;48.506;8.966;2022-08-19T14:15:06;21.20;99.90
23089;DHT22;11713;48.506;8.966;2022-08-19T14:17:32;21.30;99.90
23089;DHT22;11713;48.506;8.966;2022-08-19T14:20:05;21.40;99.90
23089;DHT22;11713;48.506;8.966;2022-08-19T14:22:35;21.40;99.90
23089;DHT22;11713;48.506;8.966;2022-08-19T14:25:03;21.40;99.90
23089;DHT22;11713;48.506;8.966;2022-08-19T14:27:29;21.40;99.90
23089;DHT22;11713;48.506;8.966;2022-08-19T14:29:55;21.30;99.90
23089;DHT22;11713;48.506;8.966;2022-08-19T14:32:21;21.40;99.90
23089;DHT22;11713;48.506;8.966;2022-08-19T14:34:47;21.40;99.90
23089;DHT22;11713;48.506;8.966;2022-08-19T14:37:14;21.40;99.90
23089;DHT22;11713;48.506;8.966;2022-08-19T14:39:41;21.50;99.90
23089;DHT22;11713;48.506;8.966;2022-08-19T14:42:08;21.60;99.90
23089;DHT22;11713;48.506;8.966;2022-08-19T14:44:34;21.70;99.90
23089;DHT22;11713;48.506;8.966;2022-08-19T14:47:00;21.80;99.90
23089;DHT22;11713;48.506;8.966;2022-08-19T14:49:26;21.90;99.90
23089;DHT22;11713;48.506;8.966;2022-08-19T14:51:52;22.00;99.90
23089;DHT22;11713;48.506;8.966;2022-08-19T14:54:18;22.20;99.90
23089;DHT22;11713;48.506;8.966;2022-08-19T14:56:44;22.50;99.90
23089;DHT22;11713;48.506;8.966;2022-08-19T14:59:10;22.60;99.90
23089;DHT22;11713;48.506;8.966;2022-08-19T15:01:47;22.90;99.90
23089;DHT22;11713;48.506;8.966;2022-08-19T15:04:13;23.00;99.90
23089;DHT22;11713;48.506;8.966;2022-08-19T15:06:39;23.10;99.90
23089;DHT22;11713;48.506;8.966;2022-08-19T15:09:05;23.20;99.90
23089;DHT22;11713;48.506;8.966;2022-08-19T15:11:31;23.20;99.90
23089;DHT22;11713;48.506;8.966;2022-08-19T15:13:59;23.30;99.90
23089;DHT22;11713;48.506;8.966;2022-08-19T15:16:26;23.20;99.90
23089;DHT22;11713;48.506;8.966;2022-08-19T15:18:55;23.20;99.90
23089;DHT22;11713;48.506;8.966;2022-08-19T15:21:22;23.10;99.90
23089;DHT22;11713;48.506;8.966;2022-08-19T15:23:49;23.00;99.90
23089;DHT22;11713;48.506;8.966;2022-08-19T15:26:17;22.90;99.90
23089;DHT22;11713;48.506;8.966;2022-08-19T15:28:44;22.90;99.90
23089;DHT22;11713;48.506;8.966;2022-08-19T15:31:11;22.90;99.90
23089;DHT22;11713;48.506;8.966;2022-08-19T15:33:38;22.90;99.90
23089;DHT22;11713;48.506;8.966;2022-08-19T15:36:07;22.90;99.90
23089;DHT22;11713;48.506;8.966;2022-08-19T15:38:34;22.90;99.90
23089;DHT22;11713;48.506;8.966;2022-08-19T15:41:02;22.90;99.90
23089;DHT22;11713;48.506;8.966;2022-08-19T15:43:47;22.80;99.90
23089;DHT22;11713;48.506;8.966;2022-08-19T15:46:21;22.80;99.90
23089;DHT22;11713;48.506;8.966;2022-08-19T15:48:48;22.70;99.90
23089;DHT22;11713;48.506;8.966;2022-08-19T15:51:14;22.70;99.90
23089;DHT22;11713;48.506;8.966;2022-08-19T15:53:41;22.60;99.90
23089;DHT22;11713;48.506;8.966;2022-08-19T15:56:08;22.60;99.90